sensor_id;sensor_type;location;lat;lon;timestamp;P1;durP1;ratioP1;P2;durP2;ratioP2
8632;SDS011;4354;49.832;10.746;2024-02-04T00:01:59;1.47;;;0.80;;
8632;SDS011;4354;49.832;10.746;2024-02-04T00:04:26;0.70;;;0.70;;
8632;SDS011;4354;49.832;10.746;2024-02-04T00:06:53;0.80;;;0.80;;
8632;SDS011;4354;49.832;10.746;2024-02-04T00:09:20;1.00;;;0.80;;
8632;SDS011;4354;49.832;10.746;2024-02-04T00:11:49;0.70;;;0.70;;
8632;SDS011;4354;49.832;10.746;2024-02-04T00:14:16;2.00;;;1.00;;
8632;SDS011;4354;49.832;10.746;2024-02-04T00:16:42;0.90;;;0.90;;
8632;SDS011;4354;49.832;10.746;2024-02-04T00:19:09;0.70;;;0.70;;
8632;SDS011;4354;49.832;10.746;2024-02-04T00:21:36;0.83;;;0.77;;
8632;SDS011;4354;49.832;10.746;2024-02-04T00:24:03;1.17;;;0.63;;
8632;SDS011;4354;49.832;10.746;2024-02-04T00:26:30;0.90;;;0.90;;
8632;SDS011;4354;49.832;10.746;2024-02-04T00:28:56;0.90;;;0.90;;
8632;SDS011;4354;49.832;10.746;2024-02-04T00:31:23;0.90;;;0.90;;
8632;SDS011;4354;49.832;10.746;2024-02-04T00:33:50;1.20;;;1.10;;
8632;SDS011;4354;49.832;10.746;2024-02-04T00:36:17;0.80;;;0.80;;
8632;SDS011;4354;49.832;10.746;2024-02-04T00:38:45;0.80;;;0.80;;
8632;SDS011;4354;49.832;10.746;2024-02-04T00:41:12;1.67;;;1.10;;
8632;SDS011;4354;49.832;10.746;2024-02-04T00:43:38;0.63;;;0.63;;
8632;SDS011;4354;49.832;10.746;2024-02-04T00:46:05;1.97;;;0.90;;
8632;SDS011;4354;49.832;10.746;2024-02-04T00:48:33;1.00;;;0.90;;
8632;SDS011;4354;49.832;10.746;2024-02-04T00:51:00;3.00;;;1.00;;
8632;SDS011;4354;49.832;10.746;2024-02-04T00:53:27;1.07;;;0.97;;
8632;SDS011;4354;49.832;10.746;2024-02-04T00:56:03;0.80;;;0.80;;
8632;SDS011;4354;49.832;10.746;2024-02-04T00:58:30;0.97;;;0.90;;
8632;SDS011;4354;49.832;10.746;2024-02-04T01:00:57;0.70;;;0.70;;
8632;SDS011;4354;49.832;10.746;2024-02-04T01:03:24;0.70;;;0.70;;
8632;SDS011;4354;49.832;10.746;2024-02-04T01:05:51;0.90;;;0.90;;
8632;SDS011;4354;49.832;10.746;2024-02-04T01:08:18;0.93;;;0.93;;
8632;SDS011;4354;49.832;10.746;2024-02-04T01:10:44;1.10;;;1.03;;
8632;SDS011;4354;49.832;10.746;2024-02-04T01:13:11;0.90;;;0.90;;
8632;SDS011;4354;49.832;10.746;2024-02-04T01:15:38;1.30;;;1.20;;
8632;SDS011;4354;49.832;10.746;2024-02-04T01:18:05;1.33;;;1.10;;
8632;SDS011;4354;49.832;10.746;2024-02-04T01:20:32;1.20;;;1.10;;
8632;SDS011;4354;49.832;10.746;2024-02-04T01:22:59;1.67;;;1.33;;
8632;SDS011;4354;49.832;10.746;2024-02-04T01:25:25;1.87;;;1.33;;
8632;SDS011;4354;49.832;10.746;2024-02-04T01:27:52;1.40;;;1.30;;
8632;SDS011;4354;49.832;10.746;2024-02-04T01:30:19;1.40;;;1.30;;
8632;SDS011;4354;49.832;10.746;2024-02-04T01:32:46;1.20;;;1.10;;
8632;SDS011;4354;49.832;10.746;2024-02-04T01:35:13;1.37;;;1.27;;
8632;SDS011;4354;49.832;10.746;2024-02-04T01:37:42;1.33;;;1.23;;
8632;SDS011;4354;49.832;10.746;2024-02-04T01:40:10;2.20;;;1.30;;
8632;SDS011;4354;49.832;10.746;2024-02-04T01:42:37;1.43;;;1.33;;
8632;SDS011;4354;49.832;10.746;2024-02-04T01:45:04;1.27;;;1.17;;
8632;SDS011;4354;49.832;10.746;2024-02-04T01:47:31;1.20;;;1.10;;
8632;SDS011;4354;49.832;10.746;2024-02-04T01:49:58;1.40;;;1.30;;
8632;SDS011;4354;49.832;10.746;2024-02-04T01:52:25;1.40;;;1.20;;
8632;SDS011;4354;49.832;10.746;2024-02-04T01:54:53;1.47;;;1.30;;
8632;SDS011;4354;49.832;10.746;2024-02-04T01:57:20;1.30;;;1.20;;
8632;SDS011;4354;49.832;10.746;2024-02-04T01:59:48;1.17;;;1.10;;
8632;SDS011;4354;49.832;10.746;2024-02-04T02:02:18;1.70;;;1.30;;
8632;SDS011;4354;49.832;10.746;2024-02-04T02:04:45;1.10;;;1.10;;
8632;SDS011;4354;49.832;10.746;2024-02-04T02:07:13;1.40;;;1.30;;
8632;SDS011;4354;49.832;10.746;2024-02-04T02:09:43;1.30;;;1.20;;
8632;SDS011;4354;49.832;10.746;2024-02-04T02:12:14;1.40;;;1.30;;
8632;SDS011;4354;49.832;10.746;2024-02-04T02:14:46;1.03;;;1.00;;
8632;SDS011;4354;49.832;10.746;2024-02-04T02:17:20;1.47;;;1.37;;
8632;SDS011;4354;49.832;10.746;2024-02-04T02:20:02;1.80;;;1.60;;
8632;SDS011;4354;49.832;10.746;2024-02-04T02:25:57;1.43;;;1.20;;
8632;SDS011;4354;49.832;10.746;2024-02-04T02:28:25;1.50;;;1.40;;
8632;SDS011;4354;49.832;10.746;2024-02-04T02:30:52;1.63;;;1.53;;
8632;SDS011;4354;49.832;10.746;2024-02-04T02:33:19;1.80;;;1.70;;
8632;SDS011;4354;49.832;10.746;2024-02-04T02:35:46;1.93;;;1.83;;
8632;SDS011;4354;49.832;10.746;2024-02-04T02:38:25;1.90;;;1.77;;
8632;SDS011;4354;49.832;10.746;2024-02-04T02:41:03;1.77;;;1.67;;
8632;SDS011;4354;49.832;10.746;2024-02-04T02:43:33;1.80;;;1.70;;
8632;SDS011;4354;49.832;10.746;2024-02-04T02:46:01;2.30;;;2.00;;
8632;SDS011;4354;49.832;10.746;2024-02-04T02:48:28;2.20;;;2.00;;
8632;SDS011;4354;49.832;10.746;2024-02-04T02:50:56;2.37;;;1.87;;
8632;SDS011;4354;49.832;10.746;2024-02-04T02:53:22;2.10;;;2.00;;
8632;SDS011;4354;49.832;10.746;2024-02-04T02:55:49;2.27;;;2.07;;
8632;SDS011;4354;49.832;10.746;2024-02-04T02:58:16;2.47;;;2.20;;
8632;SDS011;4354;49.832;10.746;2024-02-04T03:00:43;2.60;;;2.40;;
8632;SDS011;4354;49.832;10.746;2024-02-04T03:03:11;2.80;;;2.60;;
8632;SDS011;4354;49.832;10.746;2024-02-04T03:05:38;2.90;;;2.70;;
8632;SDS011;4354;49.832;10.746;2024-02-04T03:08:05;2.30;;;2.10;;
8632;SDS011;4354;49.832;10.746;2024-02-04T03:10:32;3.87;;;2.57;;
8632;SDS011;4354;49.832;10.746;2024-02-04T03:12:59;2.90;;;2.43;;
8632;SDS011;4354;49.832;10.746;2024-02-04T03:15:27;3.20;;;2.70;;
8632;SDS011;4354;49.832;10.746;2024-02-04T03:17:53;3.00;;;2.70;;
8632;SDS011;4354;49.832;10.746;2024-02-04T03:20:20;3.33;;;3.03;;
8632;SDS011;4354;49.832;10.746;2024-02-04T03:22:48;2.97;;;2.77;;
8632;SDS011;4354;49.832;10.746;2024-02-04T03:25:15;3.87;;;3.20;;
8632;SDS011;4354;49.832;10.746;2024-02-04T03:27:42;3.23;;;2.90;;
8632;SDS011;4354;49.832;10.746;2024-02-04T03:30:09;3.50;;;2.63;;
8632;SDS011;4354;49.832;10.746;2024-02-04T03:32:36;3.93;;;3.63;;
8632;SDS011;4354;49.832;10.746;2024-02-04T03:35:03;3.97;;;3.63;;
8632;SDS011;4354;49.832;10.746;2024-02-04T03:37:31;4.40;;;4.00;;
8632;SDS011;4354;49.832;10.746;2024-02-04T03:39:57;3.90;;;3.60;;
8632;SDS011;4354;49.832;10.746;2024-02-04T03:42:24;3.87;;;3.57;;
8632;SDS011;4354;49.832;10.746;2024-02-04T03:44:51;4.43;;;4.03;;
8632;SDS011;4354;49.832;10.746;2024-02-04T03:47:18;4.03;;;3.63;;
8632;SDS011;4354;49.832;10.746;2024-02-04T03:49:45;4.10;;;3.70;;
8632;SDS011;4354;49.832;10.746;2024-02-04T03:52:11;4.13;;;3.63;;
8632;SDS011;4354;49.832;10.746;2024-02-04T03:54:38;4.43;;;4.03;;
8632;SDS011;4354;49.832;10.746;2024-02-04T03:57:05;4.27;;;3.93;;
8632;SDS011;4354;49.832;10.746;2024-02-04T03:59:32;5.00;;;4.60;;
8632;SDS011;4354;49.832;10.746;2024-02-04T04:01:58;4.97;;;4.57;;
8632;SDS011;4354;49.832;10.746;2024-02-04T04:04:25;4.93;;;4.53;;
8632;SDS011;4354;49.832;10.746;2024-02-04T04:06:53;4.83;;;4.33;;
8632;SDS011;4354;49.832;10.746;2024-02-04T04:09:19;5.40;;;5.00;;
8632;SDS011;4354;49.832;10.746;2024-02-04T04:11:46;5.50;;;5.00;;
8632;SDS011;4354;49.832;10.746;2024-02-04T04:14:13;5.67;;;5.17;;
8632;SDS011;4354;49.832;10.746;2024-02-04T04:16:40;6.33;;;5.73;;
8632;SDS011;4354;49.832;10.746;2024-02-04T04:19:06;5.50;;;5.00;;
8632;SDS011;4354;49.832;10.746;2024-02-04T04:21:33;5.40;;;4.97;;
8632;SDS011;4354;49.832;10.746;2024-02-04T04:24:01;5.00;;;4.60;;
8632;SDS011;4354;49.832;10.746;2024-02-04T04:26:28;5.47;;;4.97;;
8632;SDS011;4354;49.832;10.746;2024-02-04T04:28:54;4.10;;;3.70;;
8632;SDS011;4354;49.832;10.746;2024-02-04T04:31:21;4.00;;;3.60;;
8632;SDS011;4354;49.832;10.746;2024-02-04T04:33:48;4.10;;;3.70;;
8632;SDS011;4354;49.832;10.746;2024-02-04T04:36:15;4.50;;;3.57;;
8632;SDS011;4354;49.832;10.746;2024-02-04T04:38:41;3.43;;;3.13;;
8632;SDS011;4354;49.832;10.746;2024-02-04T04:41:08;3.53;;;3.33;;
8632;SDS011;4354;49.832;10.746;2024-02-04T04:43:38;3.57;;;3.27;;
8632;SDS011;4354;49.832;10.746;2024-02-04T04:46:05;4.20;;;3.80;;
8632;SDS011;4354;49.832;10.746;2024-02-04T04:48:32;3.83;;;3.50;;
8632;SDS011;4354;49.832;10.746;2024-02-04T04:50:58;4.03;;;3.70;;
8632;SDS011;4354;49.832;10.746;2024-02-04T04:53:25;3.80;;;3.30;;
8632;SDS011;4354;49.832;10.746;2024-02-04T04:55:52;4.20;;;3.23;;
8632;SDS011;4354;49.832;10.746;2024-02-04T04:58:19;3.63;;;3.33;;
8632;SDS011;4354;49.832;10.746;2024-02-04T05:00:45;3.53;;;3.23;;
8632;SDS011;4354;49.832;10.746;2024-02-04T05:03:12;3.60;;;3.30;;
8632;SDS011;4354;49.832;10.746;2024-02-04T05:05:39;3.93;;;3.23;;
8632;SDS011;4354;49.832;10.746;2024-02-04T05:08:06;4.33;;;3.93;;
8632;SDS011;4354;49.832;10.746;2024-02-04T05:10:33;4.10;;;3.67;;
8632;SDS011;4354;49.832;10.746;2024-02-04T05:12:59;4.10;;;3.70;;
8632;SDS011;4354;49.832;10.746;2024-02-04T05:15:26;3.53;;;3.23;;
8632;SDS011;4354;49.832;10.746;2024-02-04T05:17:53;3.97;;;3.67;;
8632;SDS011;4354;49.832;10.746;2024-02-04T05:20:20;3.57;;;3.27;;
8632;SDS011;4354;49.832;10.746;2024-02-04T05:22:47;3.67;;;3.37;;
8632;SDS011;4354;49.832;10.746;2024-02-04T05:25:14;3.57;;;3.27;;
8632;SDS011;4354;49.832;10.746;2024-02-04T05:27:41;3.90;;;3.50;;
8632;SDS011;4354;49.832;10.746;2024-02-04T05:30:08;3.17;;;2.90;;
8632;SDS011;4354;49.832;10.746;2024-02-04T05:32:35;3.67;;;3.30;;
8632;SDS011;4354;49.832;10.746;2024-02-04T05:35:02;3.27;;;2.90;;
8632;SDS011;4354;49.832;10.746;2024-02-04T05:37:29;3.03;;;2.83;;
8632;SDS011;4354;49.832;10.746;2024-02-04T05:39:56;4.83;;;2.83;;
8632;SDS011;4354;49.832;10.746;2024-02-04T05:42:23;2.90;;;2.60;;
8632;SDS011;4354;49.832;10.746;2024-02-04T05:44:49;2.30;;;2.10;;
8632;SDS011;4354;49.832;10.746;2024-02-04T05:47:16;2.17;;;1.97;;
8632;SDS011;4354;49.832;10.746;2024-02-04T05:49:43;2.47;;;2.27;;
8632;SDS011;4354;49.832;10.746;2024-02-04T05:52:11;2.20;;;2.00;;
8632;SDS011;4354;49.832;10.746;2024-02-04T05:54:38;3.20;;;2.20;;
8632;SDS011;4354;49.832;10.746;2024-02-04T05:57:05;2.27;;;2.00;;
8632;SDS011;4354;49.832;10.746;2024-02-04T05:59:33;2.00;;;1.80;;
8632;SDS011;4354;49.832;10.746;2024-02-04T06:02:00;1.80;;;1.70;;
8632;SDS011;4354;49.832;10.746;2024-02-04T06:04:27;2.03;;;1.90;;
8632;SDS011;4354;49.832;10.746;2024-02-04T06:06:54;2.03;;;1.83;;
8632;SDS011;4354;49.832;10.746;2024-02-04T06:09:20;1.70;;;1.60;;
8632;SDS011;4354;49.832;10.746;2024-02-04T06:11:47;2.17;;;1.97;;
8632;SDS011;4354;49.832;10.746;2024-02-04T06:14:14;3.33;;;2.53;;
8632;SDS011;4354;49.832;10.746;2024-02-04T06:16:40;2.60;;;2.40;;
8632;SDS011;4354;49.832;10.746;2024-02-04T06:19:07;1.90;;;1.80;;
8632;SDS011;4354;49.832;10.746;2024-02-04T06:21:36;3.17;;;2.10;;
8632;SDS011;4354;49.832;10.746;2024-02-04T06:24:02;1.90;;;1.80;;
8632;SDS011;4354;49.832;10.746;2024-02-04T06:26:29;2.00;;;1.80;;
8632;SDS011;4354;49.832;10.746;2024-02-04T06:28:56;1.77;;;1.67;;
8632;SDS011;4354;49.832;10.746;2024-02-04T06:31:23;1.87;;;1.77;;
8632;SDS011;4354;49.832;10.746;2024-02-04T06:33:49;2.10;;;1.90;;
8632;SDS011;4354;49.832;10.746;2024-02-04T06:36:17;2.27;;;1.90;;
8632;SDS011;4354;49.832;10.746;2024-02-04T06:38:44;1.77;;;1.67;;
8632;SDS011;4354;49.832;10.746;2024-02-04T06:41:11;1.80;;;1.70;;
8632;SDS011;4354;49.832;10.746;2024-02-04T06:43:37;2.00;;;1.80;;
8632;SDS011;4354;49.832;10.746;2024-02-04T06:46:05;2.03;;;1.50;;
8632;SDS011;4354;49.832;10.746;2024-02-04T06:48:32;2.10;;;1.70;;
8632;SDS011;4354;49.832;10.746;2024-02-04T06:50:59;2.27;;;1.80;;
8632;SDS011;4354;49.832;10.746;2024-02-04T06:53:25;1.87;;;1.77;;
8632;SDS011;4354;49.832;10.746;2024-02-04T06:55:52;1.60;;;1.50;;
8632;SDS011;4354;49.832;10.746;2024-02-04T06:58:19;1.70;;;1.60;;
8632;SDS011;4354;49.832;10.746;2024-02-04T07:00:46;1.80;;;1.57;;
8632;SDS011;4354;49.832;10.746;2024-02-04T07:03:13;2.97;;;1.30;;
8632;SDS011;4354;49.832;10.746;2024-02-04T07:05:40;3.13;;;1.73;;
8632;SDS011;4354;49.832;10.746;2024-02-04T07:08:08;2.90;;;1.97;;
8632;SDS011;4354;49.832;10.746;2024-02-04T07:10:36;1.77;;;1.67;;
8632;SDS011;4354;49.832;10.746;2024-02-04T07:13:02;3.30;;;2.13;;
8632;SDS011;4354;49.832;10.746;2024-02-04T07:15:29;1.83;;;1.63;;
8632;SDS011;4354;49.832;10.746;2024-02-04T07:17:56;1.50;;;1.40;;
8632;SDS011;4354;49.832;10.746;2024-02-04T07:20:23;1.77;;;1.63;;
8632;SDS011;4354;49.832;10.746;2024-02-04T07:22:50;1.80;;;1.70;;
8632;SDS011;4354;49.832;10.746;2024-02-04T07:25:17;2.83;;;1.97;;
8632;SDS011;4354;49.832;10.746;2024-02-04T07:27:43;2.43;;;1.70;;
8632;SDS011;4354;49.832;10.746;2024-02-04T07:30:10;1.60;;;1.50;;
8632;SDS011;4354;49.832;10.746;2024-02-04T07:32:37;1.80;;;1.70;;
8632;SDS011;4354;49.832;10.746;2024-02-04T07:35:05;1.57;;;1.47;;
8632;SDS011;4354;49.832;10.746;2024-02-04T07:37:32;4.47;;;1.70;;
8632;SDS011;4354;49.832;10.746;2024-02-04T07:39:59;1.77;;;1.67;;
8632;SDS011;4354;49.832;10.746;2024-02-04T07:42:29;1.60;;;1.50;;
8632;SDS011;4354;49.832;10.746;2024-02-04T07:44:56;2.67;;;1.63;;
8632;SDS011;4354;49.832;10.746;2024-02-04T07:47:23;1.40;;;1.30;;
8632;SDS011;4354;49.832;10.746;2024-02-04T07:49:50;1.53;;;1.43;;
8632;SDS011;4354;49.832;10.746;2024-02-04T07:52:17;1.40;;;1.30;;
8632;SDS011;4354;49.832;10.746;2024-02-04T07:54:44;1.47;;;1.37;;
8632;SDS011;4354;49.832;10.746;2024-02-04T07:57:11;1.30;;;1.20;;
8632;SDS011;4354;49.832;10.746;2024-02-04T07:59:38;1.90;;;1.43;;
8632;SDS011;4354;49.832;10.746;2024-02-04T08:02:05;1.30;;;1.20;;
8632;SDS011;4354;49.832;10.746;2024-02-04T08:04:33;1.90;;;1.70;;
8632;SDS011;4354;49.832;10.746;2024-02-04T08:07:01;1.30;;;1.20;;
8632;SDS011;4354;49.832;10.746;2024-02-04T08:09:28;1.70;;;1.30;;
8632;SDS011;4354;49.832;10.746;2024-02-04T08:11:55;2.53;;;1.27;;
8632;SDS011;4354;49.832;10.746;2024-02-04T08:14:25;1.37;;;1.27;;
8632;SDS011;4354;49.832;10.746;2024-02-04T08:16:51;1.30;;;1.20;;
8632;SDS011;4354;49.832;10.746;2024-02-04T08:19:18;1.57;;;1.33;;
8632;SDS011;4354;49.832;10.746;2024-02-04T08:21:45;1.50;;;1.40;;
8632;SDS011;4354;49.832;10.746;2024-02-04T08:24:12;0.83;;;0.83;;
8632;SDS011;4354;49.832;10.746;2024-02-04T08:26:38;1.90;;;1.60;;
8632;SDS011;4354;49.832;10.746;2024-02-04T08:29:05;1.50;;;1.40;;
8632;SDS011;4354;49.832;10.746;2024-02-04T08:31:32;0.90;;;0.90;;
8632;SDS011;4354;49.832;10.746;2024-02-04T08:34:00;1.20;;;1.10;;
8632;SDS011;4354;49.832;10.746;2024-02-04T08:36:27;1.57;;;1.10;;
8632;SDS011;4354;49.832;10.746;2024-02-04T08:38:53;1.40;;;1.03;;
8632;SDS011;4354;49.832;10.746;2024-02-04T08:41:20;1.23;;;0.90;;
8632;SDS011;4354;49.832;10.746;2024-02-04T08:43:47;0.80;;;0.80;;
8632;SDS011;4354;49.832;10.746;2024-02-04T08:46:14;0.70;;;0.70;;
8632;SDS011;4354;49.832;10.746;2024-02-04T08:48:41;1.10;;;1.00;;
8632;SDS011;4354;49.832;10.746;2024-02-04T08:51:11;0.93;;;0.90;;
8632;SDS011;4354;49.832;10.746;2024-02-04T08:53:39;0.80;;;0.80;;
8632;SDS011;4354;49.832;10.746;2024-02-04T08:56:06;1.37;;;0.90;;
8632;SDS011;4354;49.832;10.746;2024-02-04T08:58:33;0.97;;;0.80;;
8632;SDS011;4354;49.832;10.746;2024-02-04T09:01:00;0.87;;;0.87;;
8632;SDS011;4354;49.832;10.746;2024-02-04T09:03:27;0.80;;;0.80;;
8632;SDS011;4354;49.832;10.746;2024-02-04T09:05:54;0.80;;;0.80;;
8632;SDS011;4354;49.832;10.746;2024-02-04T09:08:21;0.70;;;0.70;;
8632;SDS011;4354;49.832;10.746;2024-02-04T09:10:48;1.23;;;0.80;;
8632;SDS011;4354;49.832;10.746;2024-02-04T09:13:14;1.13;;;1.03;;
8632;SDS011;4354;49.832;10.746;2024-02-04T09:15:41;0.83;;;0.83;;
8632;SDS011;4354;49.832;10.746;2024-02-04T09:18:08;1.03;;;1.03;;
8632;SDS011;4354;49.832;10.746;2024-02-04T09:20:35;1.20;;;1.10;;
8632;SDS011;4354;49.832;10.746;2024-02-04T09:23:02;1.20;;;1.10;;
8632;SDS011;4354;49.832;10.746;2024-02-04T09:25:30;1.03;;;0.93;;
8632;SDS011;4354;49.832;10.746;2024-02-04T09:27:57;1.00;;;1.00;;
8632;SDS011;4354;49.832;10.746;2024-02-04T09:30:23;0.90;;;0.90;;
8632;SDS011;4354;49.832;10.746;2024-02-04T09:32:50;1.20;;;1.10;;
8632;SDS011;4354;49.832;10.746;2024-02-04T09:35:17;0.93;;;0.90;;
8632;SDS011;4354;49.832;10.746;2024-02-04T09:37:44;2.40;;;1.10;;
8632;SDS011;4354;49.832;10.746;2024-02-04T09:40:11;0.70;;;0.70;;
8632;SDS011;4354;49.832;10.746;2024-02-04T09:42:38;1.03;;;0.93;;
8632;SDS011;4354;49.832;10.746;2024-02-04T09:45:06;1.20;;;0.83;;
8632;SDS011;4354;49.832;10.746;2024-02-04T09:47:34;0.80;;;0.80;;
8632;SDS011;4354;49.832;10.746;2024-02-04T09:50:01;0.83;;;0.80;;
8632;SDS011;4354;49.832;10.746;2024-02-04T09:52:29;0.80;;;0.80;;
8632;SDS011;4354;49.832;10.746;2024-02-04T09:54:59;0.67;;;0.67;;
8632;SDS011;4354;49.832;10.746;2024-02-04T09:57:30;0.90;;;0.90;;
8632;SDS011;4354;49.832;10.746;2024-02-04T09:59:58;0.60;;;0.60;;
8632;SDS011;4354;49.832;10.746;2024-02-04T10:02:25;1.17;;;0.80;;
8632;SDS011;4354;49.832;10.746;2024-02-04T10:04:53;0.87;;;0.83;;
8632;SDS011;4354;49.832;10.746;2024-02-04T10:07:20;0.80;;;0.73;;
8632;SDS011;4354;49.832;10.746;2024-02-04T10:09:47;0.70;;;0.70;;
8632;SDS011;4354;49.832;10.746;2024-02-04T10:12:14;0.73;;;0.73;;
8632;SDS011;4354;49.832;10.746;2024-02-04T10:14:42;0.70;;;0.70;;
8632;SDS011;4354;49.832;10.746;2024-02-04T10:17:08;2.00;;;1.30;;
8632;SDS011;4354;49.832;10.746;2024-02-04T10:19:35;1.23;;;0.80;;
8632;SDS011;4354;49.832;10.746;2024-02-04T10:22:03;1.30;;;0.80;;
8632;SDS011;4354;49.832;10.746;2024-02-04T10:24:30;0.70;;;0.63;;
8632;SDS011;4354;49.832;10.746;2024-02-04T10:26:57;0.70;;;0.70;;
8632;SDS011;4354;49.832;10.746;2024-02-04T10:29:24;0.40;;;0.40;;
8632;SDS011;4354;49.832;10.746;2024-02-04T10:31:54;0.77;;;0.50;;
8632;SDS011;4354;49.832;10.746;2024-02-04T10:34:22;1.20;;;0.40;;
8632;SDS011;4354;49.832;10.746;2024-02-04T10:36:51;0.70;;;0.60;;
8632;SDS011;4354;49.832;10.746;2024-02-04T10:39:18;0.50;;;0.50;;
8632;SDS011;4354;49.832;10.746;2024-02-04T10:41:49;0.40;;;0.40;;
8632;SDS011;4354;49.832;10.746;2024-02-04T10:44:23;0.50;;;0.50;;
8632;SDS011;4354;49.832;10.746;2024-02-04T10:46:51;0.50;;;0.50;;
8632;SDS011;4354;49.832;10.746;2024-02-04T10:49:20;0.50;;;0.50;;
8632;SDS011;4354;49.832;10.746;2024-02-04T10:51:50;1.83;;;0.77;;
8632;SDS011;4354;49.832;10.746;2024-02-04T10:54:20;0.50;;;0.50;;
8632;SDS011;4354;49.832;10.746;2024-02-04T10:56:53;0.40;;;0.40;;
8632;SDS011;4354;49.832;10.746;2024-02-04T10:59:25;0.60;;;0.40;;
8632;SDS011;4354;49.832;10.746;2024-02-04T11:01:56;0.50;;;0.50;;
8632;SDS011;4354;49.832;10.746;2024-02-04T11:04:23;0.50;;;0.50;;
8632;SDS011;4354;49.832;10.746;2024-02-04T11:06:50;0.60;;;0.60;;
8632;SDS011;4354;49.832;10.746;2024-02-04T11:09:20;0.60;;;0.60;;
8632;SDS011;4354;49.832;10.746;2024-02-04T11:11:47;0.50;;;0.50;;
8632;SDS011;4354;49.832;10.746;2024-02-04T11:14:16;0.40;;;0.40;;
8632;SDS011;4354;49.832;10.746;2024-02-04T11:19:37;0.50;;;0.50;;
8632;SDS011;4354;49.832;10.746;2024-02-04T11:28:03;0.70;;;0.60;;
8632;SDS011;4354;49.832;10.746;2024-02-04T11:30:34;0.80;;;0.80;;
8632;SDS011;4354;49.832;10.746;2024-02-04T11:33:03;1.70;;;0.60;;
8632;SDS011;4354;49.832;10.746;2024-02-04T11:35:34;0.70;;;0.60;;
8632;SDS011;4354;49.832;10.746;2024-02-04T11:38:05;0.77;;;0.77;;
8632;SDS011;4354;49.832;10.746;2024-02-04T11:40:35;0.90;;;0.90;;
8632;SDS011;4354;49.832;10.746;2024-02-04T11:43:06;1.00;;;0.80;;
8632;SDS011;4354;49.832;10.746;2024-02-04T11:45:40;0.80;;;0.73;;
8632;SDS011;4354;49.832;10.746;2024-02-04T11:48:08;0.73;;;0.73;;
8632;SDS011;4354;49.832;10.746;2024-02-04T11:50:37;0.90;;;0.90;;
8632;SDS011;4354;49.832;10.746;2024-02-04T11:53:06;1.37;;;1.20;;
8632;SDS011;4354;49.832;10.746;2024-02-04T11:55:38;1.30;;;1.20;;
8632;SDS011;4354;49.832;10.746;2024-02-04T11:58:11;1.00;;;0.90;;
8632;SDS011;4354;49.832;10.746;2024-02-04T12:00:41;1.93;;;1.63;;
8632;SDS011;4354;49.832;10.746;2024-02-04T12:03:12;2.83;;;2.30;;
8632;SDS011;4354;49.832;10.746;2024-02-04T12:05:38;3.70;;;3.40;;
8632;SDS011;4354;49.832;10.746;2024-02-04T12:08:06;1.17;;;1.07;;
8632;SDS011;4354;49.832;10.746;2024-02-04T12:10:34;0.90;;;0.90;;
8632;SDS011;4354;49.832;10.746;2024-02-04T12:13:02;1.10;;;1.00;;
8632;SDS011;4354;49.832;10.746;2024-02-04T12:15:30;1.03;;;0.80;;
8632;SDS011;4354;49.832;10.746;2024-02-04T12:20:37;1.10;;;1.00;;
8632;SDS011;4354;49.832;10.746;2024-02-04T12:23:05;0.80;;;0.80;;
8632;SDS011;4354;49.832;10.746;2024-02-04T12:25:32;1.50;;;1.03;;
8632;SDS011;4354;49.832;10.746;2024-02-04T12:28:00;2.07;;;1.17;;
8632;SDS011;4354;49.832;10.746;2024-02-04T12:30:32;1.47;;;1.10;;
8632;SDS011;4354;49.832;10.746;2024-02-04T12:32:59;1.37;;;1.10;;
8632;SDS011;4354;49.832;10.746;2024-02-04T12:35:27;0.80;;;0.80;;
8632;SDS011;4354;49.832;10.746;2024-02-04T12:37:55;0.70;;;0.70;;
8632;SDS011;4354;49.832;10.746;2024-02-04T12:40:24;0.70;;;0.70;;
8632;SDS011;4354;49.832;10.746;2024-02-04T12:42:52;0.80;;;0.80;;
8632;SDS011;4354;49.832;10.746;2024-02-04T12:45:20;1.00;;;0.90;;
8632;SDS011;4354;49.832;10.746;2024-02-04T12:47:49;1.10;;;0.80;;
8632;SDS011;4354;49.832;10.746;2024-02-04T12:50:17;0.73;;;0.70;;
8632;SDS011;4354;49.832;10.746;2024-02-04T12:52:48;0.77;;;0.77;;
8632;SDS011;4354;49.832;10.746;2024-02-04T12:55:35;1.00;;;1.00;;
8632;SDS011;4354;49.832;10.746;2024-02-04T12:58:08;1.17;;;1.00;;
8632;SDS011;4354;49.832;10.746;2024-02-04T13:00:41;0.80;;;0.80;;
8632;SDS011;4354;49.832;10.746;2024-02-04T13:03:08;0.90;;;0.90;;
8632;SDS011;4354;49.832;10.746;2024-02-04T13:05:35;0.90;;;0.90;;
8632;SDS011;4354;49.832;10.746;2024-02-04T13:08:03;1.30;;;0.90;;
8632;SDS011;4354;49.832;10.746;2024-02-04T13:10:35;1.73;;;0.90;;
8632;SDS011;4354;49.832;10.746;2024-02-04T13:13:03;1.10;;;1.00;;
8632;SDS011;4354;49.832;10.746;2024-02-04T13:15:34;2.17;;;1.10;;
8632;SDS011;4354;49.832;10.746;2024-02-04T13:18:05;1.07;;;1.00;;
8632;SDS011;4354;49.832;10.746;2024-02-04T13:20:35;1.90;;;1.20;;
8632;SDS011;4354;49.832;10.746;2024-02-04T13:23:01;1.70;;;1.30;;
8632;SDS011;4354;49.832;10.746;2024-02-04T13:25:31;1.30;;;1.20;;
8632;SDS011;4354;49.832;10.746;2024-02-04T13:27:58;1.50;;;1.40;;
8632;SDS011;4354;49.832;10.746;2024-02-04T13:30:25;1.93;;;1.30;;
8632;SDS011;4354;49.832;10.746;2024-02-04T13:32:52;0.90;;;0.90;;
8632;SDS011;4354;49.832;10.746;2024-02-04T13:35:19;1.03;;;1.03;;
8632;SDS011;4354;49.832;10.746;2024-02-04T13:37:47;2.53;;;1.07;;
8632;SDS011;4354;49.832;10.746;2024-02-04T13:40:17;1.20;;;1.10;;
8632;SDS011;4354;49.832;10.746;2024-02-04T13:42:47;1.07;;;1.03;;
8632;SDS011;4354;49.832;10.746;2024-02-04T13:45:14;1.47;;;1.00;;
8632;SDS011;4354;49.832;10.746;2024-02-04T13:47:41;2.33;;;1.10;;
8632;SDS011;4354;49.832;10.746;2024-02-04T13:50:09;1.17;;;1.07;;
8632;SDS011;4354;49.832;10.746;2024-02-04T13:52:38;2.33;;;2.13;;
8632;SDS011;4354;49.832;10.746;2024-02-04T13:55:05;2.47;;;1.70;;
8632;SDS011;4354;49.832;10.746;2024-02-04T13:57:33;1.00;;;1.00;;
8632;SDS011;4354;49.832;10.746;2024-02-04T14:00:00;0.93;;;0.93;;
8632;SDS011;4354;49.832;10.746;2024-02-04T14:02:30;1.40;;;1.10;;
8632;SDS011;4354;49.832;10.746;2024-02-04T14:04:58;1.00;;;1.00;;
8632;SDS011;4354;49.832;10.746;2024-02-04T14:07:25;1.43;;;1.20;;
8632;SDS011;4354;49.832;10.746;2024-02-04T14:09:52;1.63;;;1.53;;
8632;SDS011;4354;49.832;10.746;2024-02-04T14:12:19;1.60;;;1.30;;
8632;SDS011;4354;49.832;10.746;2024-02-04T14:14:45;1.20;;;1.10;;
8632;SDS011;4354;49.832;10.746;2024-02-04T14:17:12;1.60;;;1.10;;
8632;SDS011;4354;49.832;10.746;2024-02-04T14:19:39;1.20;;;1.00;;
8632;SDS011;4354;49.832;10.746;2024-02-04T14:22:07;0.87;;;0.87;;
8632;SDS011;4354;49.832;10.746;2024-02-04T14:24:33;1.07;;;0.80;;
8632;SDS011;4354;49.832;10.746;2024-02-04T14:27:00;1.30;;;1.20;;
8632;SDS011;4354;49.832;10.746;2024-02-04T14:29:27;0.87;;;0.87;;
8632;SDS011;4354;49.832;10.746;2024-02-04T14:31:54;1.00;;;1.00;;
8632;SDS011;4354;49.832;10.746;2024-02-04T14:34:22;1.40;;;0.90;;
8632;SDS011;4354;49.832;10.746;2024-02-04T14:36:49;0.90;;;0.90;;
8632;SDS011;4354;49.832;10.746;2024-02-04T14:39:16;0.80;;;0.80;;
8632;SDS011;4354;49.832;10.746;2024-02-04T14:41:42;1.07;;;0.90;;
8632;SDS011;4354;49.832;10.746;2024-02-04T14:44:09;1.10;;;1.00;;
8632;SDS011;4354;49.832;10.746;2024-02-04T14:46:37;1.07;;;1.00;;
8632;SDS011;4354;49.832;10.746;2024-02-04T14:49:05;1.30;;;1.20;;
8632;SDS011;4354;49.832;10.746;2024-02-04T14:51:32;1.93;;;1.03;;
8632;SDS011;4354;49.832;10.746;2024-02-04T14:54:00;1.90;;;1.00;;
8632;SDS011;4354;49.832;10.746;2024-02-04T14:56:26;1.30;;;1.20;;
8632;SDS011;4354;49.832;10.746;2024-02-04T14:58:53;1.10;;;1.00;;
8632;SDS011;4354;49.832;10.746;2024-02-04T15:01:20;1.37;;;1.20;;
8632;SDS011;4354;49.832;10.746;2024-02-04T15:03:48;0.80;;;0.80;;
8632;SDS011;4354;49.832;10.746;2024-02-04T15:06:14;1.20;;;1.10;;
8632;SDS011;4354;49.832;10.746;2024-02-04T15:08:42;1.33;;;0.90;;
8632;SDS011;4354;49.832;10.746;2024-02-04T15:11:09;1.77;;;1.67;;
8632;SDS011;4354;49.832;10.746;2024-02-04T15:13:37;1.30;;;1.07;;
8632;SDS011;4354;49.832;10.746;2024-02-04T15:16:03;1.20;;;1.10;;
8632;SDS011;4354;49.832;10.746;2024-02-04T15:18:31;0.90;;;0.90;;